This is the latest recevied weather packets stored in our database for station/object KD7JB. If no packets are shown the sender has not sent any weather packets the latest 10 day(s).
| Time | Temp. | Humidity | Pressure | Rain* | Wind** | Luminosity | Snow |
|---|---|---|---|---|---|---|---|
| 1778014495 | 20.56° C | 44% | 1175.4 hPa | 0 mm | - | 752 W/m² | - |
| 1778014191 | 20° C | 45% | 1175.4 hPa | 0 mm | - | 750 W/m² | - |
| 1778013889 | 19.44° C | 45% | 1175.4 hPa | 0 mm | - | 754 W/m² | - |
| 1778013586 | 19.44° C | 43% | 1175.4 hPa | 0 mm | - | 749 W/m² | - |
| 1778013282 | 18.89° C | 45% | 1175.6 hPa | 0 mm | - | 752 W/m² | - |
| 1778012979 | 19.44° C | 45% | 1175.7 hPa | 0 mm | - | 760 W/m² | - |
| 1778012675 | 18.89° C | 46% | 1175.6 hPa | 0 mm | - | 757 W/m² | - |
| 1778012372 | 20° C | 44% | 1175.5 hPa | 0 mm | - | 768 W/m² | - |
| 1778012069 | 19.44° C | 44% | 1175.6 hPa | 0 mm | - | 771 W/m² | - |
| 1778011767 | 18.89° C | 46% | 1175.4 hPa | 0 mm | - | 767 W/m² | - |
| 1778011464 | 18.89° C | 46% | 1175.6 hPa | 0 mm | - | 798 W/m² | - |
| 1778011159 | 18.33° C | 47% | 1175.6 hPa | 0 mm | - | 793 W/m² | - |
| 1778010857 | 18.33° C | 47% | 1175.6 hPa | 0 mm | - | 466 W/m² | - |
| 1778010554 | 18.33° C | 46% | 1175.5 hPa | 0 mm | - | 278 W/m² | - |
| 1778010252 | 18.89° C | 47% | 1175.6 hPa | 0 mm | - | 342 W/m² | - |
| 1778009951 | 18.89° C | 45% | 1175.5 hPa | 0 mm | - | 780 W/m² | - |
| 1778009650 | 18.89° C | 47% | 1175.6 hPa | 0 mm | - | 757 W/m² | - |
| 1778009347 | 18.89° C | 46% | 1175.7 hPa | 0 mm | - | 762 W/m² | - |
| 1778009045 | 18.33° C | 46% | 1175.8 hPa | 0 mm | - | 756 W/m² | - |
| 1778008742 | 17.78° C | 48% | 1175.6 hPa | 0 mm | - | 778 W/m² | - |
| 1778008441 | 18.33° C | 47% | 1175.8 hPa | 0 mm | - | 810 W/m² | - |
| 1778008137 | 18.33° C | 47% | 1175.7 hPa | 0 mm | - | 793 W/m² | - |
| 1778007833 | 18.89° C | 44% | 1175.7 hPa | 0 mm | - | 168 W/m² | - |
| 1778007528 | 18.89° C | 45% | 1175.7 hPa | 0 mm | - | 736 W/m² | - |
| 1778007225 | 17.78° C | 46% | 1176 hPa | 0 mm | - | 737 W/m² | - |
* Rain latest hour (hover to see other rain measurements)
** Current wind speed in m/s (hover to see current wind gust speed)